Cibola, AZ

6:45 AM MST on October 25, 2014 (GMT -0700)
Apache Loop | Change Station
CLOSE
Current Station
Personal Weather Station
Location: Ehrenberg, AZ
Elevation: 292 ft
Nearby Weather Stations

Elev 292 ft 33.63 °N, 114.50 °W | Updated 2 seconds ago

Clear
Clear
67.2 °F
Feels Like 67.2 °F
N
0.0
Wind Variable Wind from ESE
Gusts 0.0 mph

Today
High -- | Low -- °F
--% Chance of Precip.
Yesterday
High -- | Low -- °F
Precip. -- in
6:50 AM 5:52 PM
Waxing Crescent, 3% visible
Pressure 29.93 in
Visibility 10.0 miles
Clouds Clear
Dew Point 48 °F
Humidity 51%
Rainfall 0.00 in
Snow Depth Not available.
UV 0 out of 12
Pollen 6.30 out of 12
Air Quality Not available.
Flu Activity No Activity
METAR KBLH 251252Z AUTO 27003KT 10SM CLR 19/06 A2994 RMK AO2 SLP135 T01940061 $

More Conditions Fewer Conditions

Pressure 29.93 in
Visibility 10.0 miles
Clouds Clear
Dew Point 48 °F
Humidity 51%
Rainfall 0.00 in
Snow Depth Not available.
UV 0 out of 12
Pollen 6.30 out of 12
Air Quality Not available.
Flu Activity No Activity
METAR KBLH 251252Z AUTO 27003KT 10SM CLR 19/06 A2994 RMK AO2 SLP135 T01940061 $

More Conditions Fewer Conditions

10-Day Weather Forecast

Almanac

Astronomy

Oct. 25, 2014 Rise Set
Actual Time 6:50 AM MST 5:52 PM MST
Civil Twilight 6:25 AM MST 6:17 PM MST
Nautical Twilight 5:56 AM MST 6:47 PM MST
Astronomical Twilight 5:27 AM MST 7:16 PM MST
Moon 8:30 AM MST 7:23 PM MST
Length of Visible Light 11h 52m
Length of Day
11h 01m
Tomorrow will be 1m 53s shorter.
Waxing Crescent, 3% of the Moon is Illuminated
Today
Waxing Crescent
Oct 30
First Quarter
Nov 6
Full
Nov 14
Last Quarter
Nov 22
New

Today's Extremes

State Highs State Lows

Community

WunderPhotos

Upload Photos

1,764,830 photos uploaded!

Nearby

Snow Depth

Station Depth Elevation
White Horse Lake 1 in 7180 ft
Baker Butte 0 in 7300 ft
Mormon Mountain 0 in 7500 ft
Happy Jack 0 in 7630 ft
Snowslide Canyon 0 in 9730 ft

Earthquake Activity

City Distance Mag. Time & Date
Maneadero, Mexico 151 miles 2.5 7:44 AM MST
2014-10-24
Minimum magnitude displayed is 2.5.

Coastal Water Temperatures

Place Temperature
No Stations Reporting

Nearby Weather Stations